sensor_id;sensor_type;location;lat;lon;timestamp;temperature;humidity
4056;DHT22;2043;52.184;8.690;2023-04-25T00:02:14;7.00;99.90
4056;DHT22;2043;52.184;8.690;2023-04-25T00:04:41;7.00;99.90
4056;DHT22;2043;52.184;8.690;2023-04-25T00:07:09;7.00;99.90
4056;DHT22;2043;52.184;8.690;2023-04-25T00:09:37;7.00;99.90
4056;DHT22;2043;52.184;8.690;2023-04-25T00:12:04;7.00;99.90
4056;DHT22;2043;52.184;8.690;2023-04-25T00:14:31;7.00;99.90
4056;DHT22;2043;52.184;8.690;2023-04-25T00:17:00;7.00;99.90
4056;DHT22;2043;52.184;8.690;2023-04-25T00:19:27;7.00;99.90
4056;DHT22;2043;52.184;8.690;2023-04-25T00:21:55;7.10;99.90
4056;DHT22;2043;52.184;8.690;2023-04-25T00:24:22;7.10;99.90
4056;DHT22;2043;52.184;8.690;2023-04-25T00:26:48;7.00;99.90
4056;DHT22;2043;52.184;8.690;2023-04-25T00:29:15;7.00;99.90
4056;DHT22;2043;52.184;8.690;2023-04-25T00:31:42;7.00;99.90
4056;DHT22;2043;52.184;8.690;2023-04-25T00:34:09;7.00;99.90
4056;DHT22;2043;52.184;8.690;2023-04-25T00:36:36;7.00;99.90
4056;DHT22;2043;52.184;8.690;2023-04-25T00:39:02;7.00;99.90
4056;DHT22;2043;52.184;8.690;2023-04-25T00:41:31;7.00;99.90
4056;DHT22;2043;52.184;8.690;2023-04-25T00:43:57;7.00;99.90
4056;DHT22;2043;52.184;8.690;2023-04-25T00:46:25;7.00;99.90
4056;DHT22;2043;52.184;8.690;2023-04-25T00:51:20;6.90;99.90
4056;DHT22;2043;52.184;8.690;2023-04-25T00:53:49;6.90;99.90
4056;DHT22;2043;52.184;8.690;2023-04-25T00:56:17;6.80;99.90
4056;DHT22;2043;52.184;8.690;2023-04-25T00:58:44;6.70;99.90
4056;DHT22;2043;52.184;8.690;2023-04-25T01:01:11;6.70;99.90
4056;DHT22;2043;52.184;8.690;2023-04-25T01:03:39;6.60;99.90
4056;DHT22;2043;52.184;8.690;2023-04-25T01:06:10;6.70;99.90
4056;DHT22;2043;52.184;8.690;2023-04-25T01:08:38;6.70;99.90
4056;DHT22;2043;52.184;8.690;2023-04-25T01:11:06;6.70;99.90
4056;DHT22;2043;52.184;8.690;2023-04-25T01:13:33;6.70;99.90
4056;DHT22;2043;52.184;8.690;2023-04-25T01:16:00;6.70;99.90
4056;DHT22;2043;52.184;8.690;2023-04-25T01:18:28;6.70;99.90
4056;DHT22;2043;52.184;8.690;2023-04-25T01:20:55;6.70;99.90
4056;DHT22;2043;52.184;8.690;2023-04-25T01:23:22;6.60;99.90
4056;DHT22;2043;52.184;8.690;2023-04-25T01:25:50;6.60;99.90
4056;DHT22;2043;52.184;8.690;2023-04-25T01:28:17;6.70;99.90
4056;DHT22;2043;52.184;8.690;2023-04-25T01:30:44;6.60;99.90
4056;DHT22;2043;52.184;8.690;2023-04-25T01:33:11;6.60;99.90
4056;DHT22;2043;52.184;8.690;2023-04-25T01:35:40;6.60;99.90
4056;DHT22;2043;52.184;8.690;2023-04-25T01:38:06;6.50;99.90
4056;DHT22;2043;52.184;8.690;2023-04-25T01:40:34;6.50;99.90
4056;DHT22;2043;52.184;8.690;2023-04-25T01:43:05;6.50;99.90
4056;DHT22;2043;52.184;8.690;2023-04-25T01:45:32;6.60;99.90
4056;DHT22;2043;52.184;8.690;2023-04-25T01:47:59;6.60;99.90
4056;DHT22;2043;52.184;8.690;2023-04-25T01:52:54;6.60;99.90
4056;DHT22;2043;52.184;8.690;2023-04-25T01:55:21;6.60;99.90
4056;DHT22;2043;52.184;8.690;2023-04-25T02:00:15;6.70;99.90
4056;DHT22;2043;52.184;8.690;2023-04-25T02:02:42;6.80;99.90
4056;DHT22;2043;52.184;8.690;2023-04-25T02:05:09;6.90;99.90
4056;DHT22;2043;52.184;8.690;2023-04-25T02:07:36;6.90;99.90
4056;DHT22;2043;52.184;8.690;2023-04-25T02:10:03;6.80;99.90
4056;DHT22;2043;52.184;8.690;2023-04-25T02:12:31;6.80;99.90
4056;DHT22;2043;52.184;8.690;2023-04-25T02:14:58;6.90;99.90
4056;DHT22;2043;52.184;8.690;2023-04-25T02:17:25;6.90;99.90
4056;DHT22;2043;52.184;8.690;2023-04-25T02:22:20;6.90;99.90
4056;DHT22;2043;52.184;8.690;2023-04-25T02:24:46;6.90;99.90
4056;DHT22;2043;52.184;8.690;2023-04-25T02:27:13;6.90;99.90
4056;DHT22;2043;52.184;8.690;2023-04-25T02:29:40;6.90;99.90
4056;DHT22;2043;52.184;8.690;2023-04-25T02:34:34;6.90;99.90
4056;DHT22;2043;52.184;8.690;2023-04-25T02:37:01;6.90;99.90
4056;DHT22;2043;52.184;8.690;2023-04-25T02:39:28;6.90;99.90
4056;DHT22;2043;52.184;8.690;2023-04-25T02:41:54;6.90;99.90
4056;DHT22;2043;52.184;8.690;2023-04-25T02:46:48;6.90;99.90
4056;DHT22;2043;52.184;8.690;2023-04-25T02:49:15;6.90;99.90
4056;DHT22;2043;52.184;8.690;2023-04-25T02:51:42;6.80;99.90
4056;DHT22;2043;52.184;8.690;2023-04-25T02:54:09;6.80;99.90
4056;DHT22;2043;52.184;8.690;2023-04-25T02:56:36;6.80;99.90
4056;DHT22;2043;52.184;8.690;2023-04-25T02:59:03;6.80;99.90
4056;DHT22;2043;52.184;8.690;2023-04-25T03:01:29;6.80;99.90
4056;DHT22;2043;52.184;8.690;2023-04-25T03:03:56;6.90;99.90
4056;DHT22;2043;52.184;8.690;2023-04-25T03:08:50;6.90;99.90
4056;DHT22;2043;52.184;8.690;2023-04-25T03:11:17;6.90;99.90
4056;DHT22;2043;52.184;8.690;2023-04-25T03:13:44;6.90;99.90
4056;DHT22;2043;52.184;8.690;2023-04-25T03:16:10;6.80;99.90
4056;DHT22;2043;52.184;8.690;2023-04-25T03:18:37;6.70;99.90
4056;DHT22;2043;52.184;8.690;2023-04-25T03:23:31;6.70;99.90
4056;DHT22;2043;52.184;8.690;2023-04-25T03:25:58;6.70;99.90
4056;DHT22;2043;52.184;8.690;2023-04-25T03:28:25;6.70;99.90
4056;DHT22;2043;52.184;8.690;2023-04-25T03:30:51;6.70;99.90
4056;DHT22;2043;52.184;8.690;2023-04-25T03:33:18;6.70;99.90
4056;DHT22;2043;52.184;8.690;2023-04-25T03:35:45;6.70;99.90
4056;DHT22;2043;52.184;8.690;2023-04-25T03:38:12;6.70;99.90
4056;DHT22;2043;52.184;8.690;2023-04-25T03:40:38;6.70;99.90
4056;DHT22;2043;52.184;8.690;2023-04-25T03:45:32;6.70;99.90
4056;DHT22;2043;52.184;8.690;2023-04-25T03:47:59;6.70;99.90
4056;DHT22;2043;52.184;8.690;2023-04-25T03:52:53;6.80;99.90
4056;DHT22;2043;52.184;8.690;2023-04-25T03:55:20;6.80;99.90
4056;DHT22;2043;52.184;8.690;2023-04-25T03:57:48;6.80;99.90
4056;DHT22;2043;52.184;8.690;2023-04-25T04:00:15;6.70;99.90
4056;DHT22;2043;52.184;8.690;2023-04-25T04:07:39;6.80;99.90
4056;DHT22;2043;52.184;8.690;2023-04-25T04:10:07;6.70;99.90
4056;DHT22;2043;52.184;8.690;2023-04-25T04:12:34;6.60;99.90
4056;DHT22;2043;52.184;8.690;2023-04-25T04:15:02;6.60;99.90
4056;DHT22;2043;52.184;8.690;2023-04-25T04:17:30;6.60;99.90
4056;DHT22;2043;52.184;8.690;2023-04-25T04:22:24;6.60;99.90
4056;DHT22;2043;52.184;8.690;2023-04-25T04:24:51;6.60;99.90
4056;DHT22;2043;52.184;8.690;2023-04-25T04:27:18;6.60;99.90
4056;DHT22;2043;52.184;8.690;2023-04-25T04:29:46;6.60;99.90
4056;DHT22;2043;52.184;8.690;2023-04-25T04:32:14;6.60;99.90
4056;DHT22;2043;52.184;8.690;2023-04-25T04:34:41;6.60;99.90
4056;DHT22;2043;52.184;8.690;2023-04-25T04:37:08;6.60;99.90
4056;DHT22;2043;52.184;8.690;2023-04-25T04:39:36;6.50;99.90
4056;DHT22;2043;52.184;8.690;2023-04-25T04:42:03;6.50;99.90
4056;DHT22;2043;52.184;8.690;2023-04-25T04:44:31;6.60;99.90
4056;DHT22;2043;52.184;8.690;2023-04-25T04:47:01;6.50;99.90
4056;DHT22;2043;52.184;8.690;2023-04-25T04:49:30;6.60;99.90
4056;DHT22;2043;52.184;8.690;2023-04-25T04:51:57;6.50;99.90
4056;DHT22;2043;52.184;8.690;2023-04-25T04:54:25;6.60;99.90
4056;DHT22;2043;52.184;8.690;2023-04-25T04:56:52;6.60;99.90
4056;DHT22;2043;52.184;8.690;2023-04-25T04:59:19;6.60;99.90
4056;DHT22;2043;52.184;8.690;2023-04-25T05:01:46;6.60;99.90
4056;DHT22;2043;52.184;8.690;2023-04-25T05:04:13;6.60;99.90
4056;DHT22;2043;52.184;8.690;2023-04-25T05:06:40;6.60;99.90
4056;DHT22;2043;52.184;8.690;2023-04-25T05:11:34;6.70;99.90
4056;DHT22;2043;52.184;8.690;2023-04-25T05:14:01;6.60;99.90
4056;DHT22;2043;52.184;8.690;2023-04-25T05:18:55;6.70;99.90
4056;DHT22;2043;52.184;8.690;2023-04-25T05:21:21;6.70;99.90
4056;DHT22;2043;52.184;8.690;2023-04-25T05:23:48;6.70;99.90
4056;DHT22;2043;52.184;8.690;2023-04-25T05:26:16;6.70;99.90
4056;DHT22;2043;52.184;8.690;2023-04-25T05:28:42;6.70;99.90
4056;DHT22;2043;52.184;8.690;2023-04-25T05:31:10;6.70;99.90
4056;DHT22;2043;52.184;8.690;2023-04-25T05:33:37;6.70;99.90
4056;DHT22;2043;52.184;8.690;2023-04-25T05:36:04;6.70;99.90
4056;DHT22;2043;52.184;8.690;2023-04-25T05:38:31;6.70;99.90
4056;DHT22;2043;52.184;8.690;2023-04-25T05:41:00;6.70;99.90
4056;DHT22;2043;52.184;8.690;2023-04-25T05:43:27;6.70;99.90
4056;DHT22;2043;52.184;8.690;2023-04-25T05:45:54;6.60;99.90
4056;DHT22;2043;52.184;8.690;2023-04-25T05:50:48;6.70;99.90
4056;DHT22;2043;52.184;8.690;2023-04-25T05:53:15;6.80;99.90
4056;DHT22;2043;52.184;8.690;2023-04-25T05:55:41;6.70;99.90
4056;DHT22;2043;52.184;8.690;2023-04-25T05:58:08;6.70;99.90
4056;DHT22;2043;52.184;8.690;2023-04-25T06:00:35;6.80;99.90
4056;DHT22;2043;52.184;8.690;2023-04-25T06:03:02;6.90;99.90
4056;DHT22;2043;52.184;8.690;2023-04-25T06:05:29;6.80;99.90
4056;DHT22;2043;52.184;8.690;2023-04-25T06:07:56;6.90;99.90
4056;DHT22;2043;52.184;8.690;2023-04-25T06:10:23;6.90;99.90
4056;DHT22;2043;52.184;8.690;2023-04-25T06:12:50;6.90;99.90
4056;DHT22;2043;52.184;8.690;2023-04-25T06:15:16;6.90;99.90
4056;DHT22;2043;52.184;8.690;2023-04-25T06:17:59;6.90;99.90
4056;DHT22;2043;52.184;8.690;2023-04-25T06:22:53;6.90;99.90
4056;DHT22;2043;52.184;8.690;2023-04-25T06:25:20;6.90;99.90
4056;DHT22;2043;52.184;8.690;2023-04-25T06:27:47;6.90;99.90
4056;DHT22;2043;52.184;8.690;2023-04-25T06:30:14;6.80;99.90
4056;DHT22;2043;52.184;8.690;2023-04-25T06:32:41;6.80;99.90
4056;DHT22;2043;52.184;8.690;2023-04-25T06:35:08;6.90;99.90
4056;DHT22;2043;52.184;8.690;2023-04-25T06:37:37;7.00;99.90
4056;DHT22;2043;52.184;8.690;2023-04-25T06:40:04;7.10;99.90
4056;DHT22;2043;52.184;8.690;2023-04-25T06:42:31;7.10;99.90
4056;DHT22;2043;52.184;8.690;2023-04-25T06:44:58;7.10;99.90
4056;DHT22;2043;52.184;8.690;2023-04-25T06:47:25;7.20;99.90
4056;DHT22;2043;52.184;8.690;2023-04-25T06:52:19;7.40;99.90
4056;DHT22;2043;52.184;8.690;2023-04-25T06:54:45;7.40;99.90
4056;DHT22;2043;52.184;8.690;2023-04-25T06:57:13;7.40;99.90
4056;DHT22;2043;52.184;8.690;2023-04-25T06:59:40;7.50;99.90
4056;DHT22;2043;52.184;8.690;2023-04-25T07:02:06;7.40;99.80
4056;DHT22;2043;52.184;8.690;2023-04-25T07:04:33;7.40;99.90
4056;DHT22;2043;52.184;8.690;2023-04-25T07:07:00;7.50;99.90
4056;DHT22;2043;52.184;8.690;2023-04-25T07:09:29;7.40;99.40
4056;DHT22;2043;52.184;8.690;2023-04-25T07:14:23;7.60;98.90
4056;DHT22;2043;52.184;8.690;2023-04-25T07:16:50;7.70;98.80
4056;DHT22;2043;52.184;8.690;2023-04-25T07:19:17;7.90;99.00
4056;DHT22;2043;52.184;8.690;2023-04-25T07:24:11;7.90;97.70
4056;DHT22;2043;52.184;8.690;2023-04-25T07:26:38;8.00;97.30
4056;DHT22;2043;52.184;8.690;2023-04-25T07:29:05;8.00;96.80
4056;DHT22;2043;52.184;8.690;2023-04-25T07:36:27;8.30;96.60
4056;DHT22;2043;52.184;8.690;2023-04-25T07:41:21;8.50;95.80
4056;DHT22;2043;52.184;8.690;2023-04-25T07:43:48;8.40;93.90
4056;DHT22;2043;52.184;8.690;2023-04-25T07:58:32;9.60;92.20
4056;DHT22;2043;52.184;8.690;2023-04-25T08:00:58;9.90;90.90
4056;DHT22;2043;52.184;8.690;2023-04-25T08:03:25;9.80;88.80
4056;DHT22;2043;52.184;8.690;2023-04-25T08:05:53;9.90;88.60
4056;DHT22;2043;52.184;8.690;2023-04-25T08:10:47;9.70;89.00
4056;DHT22;2043;52.184;8.690;2023-04-25T08:13:14;9.90;88.00
4056;DHT22;2043;52.184;8.690;2023-04-25T08:15:41;9.80;88.60
4056;DHT22;2043;52.184;8.690;2023-04-25T08:20:36;9.10;88.10
4056;DHT22;2043;52.184;8.690;2023-04-25T08:23:03;8.80;88.50
4056;DHT22;2043;52.184;8.690;2023-04-25T08:25:29;9.20;89.40
4056;DHT22;2043;52.184;8.690;2023-04-25T08:27:56;9.70;87.50
4056;DHT22;2043;52.184;8.690;2023-04-25T08:32:50;10.00;86.00
4056;DHT22;2043;52.184;8.690;2023-04-25T08:37:45;10.10;85.00
4056;DHT22;2043;52.184;8.690;2023-04-25T08:40:14;9.50;83.30
4056;DHT22;2043;52.184;8.690;2023-04-25T08:42:42;9.40;85.80
4056;DHT22;2043;52.184;8.690;2023-04-25T08:45:09;9.20;85.40
4056;DHT22;2043;52.184;8.690;2023-04-25T08:47:38;9.10;85.30
4056;DHT22;2043;52.184;8.690;2023-04-25T08:50:07;9.20;85.40
4056;DHT22;2043;52.184;8.690;2023-04-25T08:52:42;9.30;85.80
4056;DHT22;2043;52.184;8.690;2023-04-25T08:55:12;9.20;85.40
4056;DHT22;2043;52.184;8.690;2023-04-25T08:57:41;9.10;86.50
4056;DHT22;2043;52.184;8.690;2023-04-25T09:00:10;9.00;86.60
4056;DHT22;2043;52.184;8.690;2023-04-25T09:02:39;9.00;87.10
4056;DHT22;2043;52.184;8.690;2023-04-25T09:05:07;8.90;87.20
4056;DHT22;2043;52.184;8.690;2023-04-25T09:07:36;8.80;87.20
4056;DHT22;2043;52.184;8.690;2023-04-25T09:10:03;8.90;86.80
4056;DHT22;2043;52.184;8.690;2023-04-25T09:12:30;9.00;87.30
4056;DHT22;2043;52.184;8.690;2023-04-25T09:15:07;9.30;86.40
4056;DHT22;2043;52.184;8.690;2023-04-25T09:17:34;9.40;84.10
4056;DHT22;2043;52.184;8.690;2023-04-25T09:20:06;9.30;83.40
4056;DHT22;2043;52.184;8.690;2023-04-25T09:22:35;9.10;84.20
4056;DHT22;2043;52.184;8.690;2023-04-25T09:25:12;8.90;84.80
4056;DHT22;2043;52.184;8.690;2023-04-25T09:27:50;8.90;85.80
4056;DHT22;2043;52.184;8.690;2023-04-25T09:32:47;8.40;86.40
4056;DHT22;2043;52.184;8.690;2023-04-25T09:35:24;8.50;89.00
4056;DHT22;2043;52.184;8.690;2023-04-25T09:37:52;8.60;89.60
4056;DHT22;2043;52.184;8.690;2023-04-25T09:42:46;8.60;90.30
4056;DHT22;2043;52.184;8.690;2023-04-25T09:45:13;8.70;90.80
4056;DHT22;2043;52.184;8.690;2023-04-25T09:47:41;8.70;90.10
4056;DHT22;2043;52.184;8.690;2023-04-25T09:50:14;8.60;89.30
4056;DHT22;2043;52.184;8.690;2023-04-25T09:52:42;8.60;89.00
4056;DHT22;2043;52.184;8.690;2023-04-25T09:55:09;8.50;87.50
4056;DHT22;2043;52.184;8.690;2023-04-25T09:57:36;8.80;88.80
4056;DHT22;2043;52.184;8.690;2023-04-25T10:00:07;9.60;88.50
4056;DHT22;2043;52.184;8.690;2023-04-25T10:05:07;11.00;84.80
4056;DHT22;2043;52.184;8.690;2023-04-25T10:07:36;11.20;85.00
4056;DHT22;2043;52.184;8.690;2023-04-25T10:10:05;11.60;81.00
4056;DHT22;2043;52.184;8.690;2023-04-25T10:12:33;11.40;77.20
4056;DHT22;2043;52.184;8.690;2023-04-25T10:15:00;11.40;76.90
4056;DHT22;2043;52.184;8.690;2023-04-25T10:17:28;11.80;77.60
4056;DHT22;2043;52.184;8.690;2023-04-25T10:19:55;12.00;79.20
4056;DHT22;2043;52.184;8.690;2023-04-25T10:22:44;12.00;76.20
4056;DHT22;2043;52.184;8.690;2023-04-25T10:25:12;12.10;77.30
4056;DHT22;2043;52.184;8.690;2023-04-25T10:27:39;12.00;76.00
4056;DHT22;2043;52.184;8.690;2023-04-25T10:30:15;11.50;74.50
4056;DHT22;2043;52.184;8.690;2023-04-25T10:32:43;11.10;75.10
4056;DHT22;2043;52.184;8.690;2023-04-25T10:40:26;10.90;76.70
4056;DHT22;2043;52.184;8.690;2023-04-25T10:42:54;10.80;76.70
4056;DHT22;2043;52.184;8.690;2023-04-25T10:45:22;10.70;77.90
4056;DHT22;2043;52.184;8.690;2023-04-25T10:52:44;10.10;77.70
4056;DHT22;2043;52.184;8.690;2023-04-25T10:57:44;9.90;78.80
4056;DHT22;2043;52.184;8.690;2023-04-25T11:00:18;9.70;78.00
4056;DHT22;2043;52.184;8.690;2023-04-25T11:02:52;9.50;78.00
4056;DHT22;2043;52.184;8.690;2023-04-25T11:05:36;9.50;80.20
4056;DHT22;2043;52.184;8.690;2023-04-25T11:08:31;9.70;80.60
4056;DHT22;2043;52.184;8.690;2023-04-25T11:11:02;9.70;81.00
4056;DHT22;2043;52.184;8.690;2023-04-25T11:13:29;9.40;81.50
4056;DHT22;2043;52.184;8.690;2023-04-25T11:15:57;9.40;82.00
4056;DHT22;2043;52.184;8.690;2023-04-25T11:18:44;9.40;82.90
4056;DHT22;2043;52.184;8.690;2023-04-25T11:21:11;9.40;83.60
4056;DHT22;2043;52.184;8.690;2023-04-25T11:23:38;9.40;83.20
4056;DHT22;2043;52.184;8.690;2023-04-25T11:26:05;9.40;83.30
4056;DHT22;2043;52.184;8.690;2023-04-25T11:28:32;9.50;83.60
4056;DHT22;2043;52.184;8.690;2023-04-25T11:30:58;9.80;84.40
4056;DHT22;2043;52.184;8.690;2023-04-25T11:33:26;10.20;83.60
4056;DHT22;2043;52.184;8.690;2023-04-25T11:35:56;10.60;82.70
4056;DHT22;2043;52.184;8.690;2023-04-25T11:38:24;10.90;81.20
4056;DHT22;2043;52.184;8.690;2023-04-25T11:40:55;10.90;79.90
4056;DHT22;2043;52.184;8.690;2023-04-25T11:43:22;10.90;79.50
4056;DHT22;2043;52.184;8.690;2023-04-25T11:45:50;10.80;77.30
4056;DHT22;2043;52.184;8.690;2023-04-25T11:48:19;10.80;76.80
4056;DHT22;2043;52.184;8.690;2023-04-25T11:53:19;10.50;78.30
4056;DHT22;2043;52.184;8.690;2023-04-25T11:55:45;10.50;78.40
4056;DHT22;2043;52.184;8.690;2023-04-25T11:58:13;10.50;79.00
4056;DHT22;2043;52.184;8.690;2023-04-25T12:00:42;10.50;79.60
4056;DHT22;2043;52.184;8.690;2023-04-25T12:03:17;10.70;80.60
4056;DHT22;2043;52.184;8.690;2023-04-25T12:05:45;10.70;80.90
4056;DHT22;2043;52.184;8.690;2023-04-25T12:08:13;11.00;79.20
4056;DHT22;2043;52.184;8.690;2023-04-25T12:10:42;11.30;76.00
4056;DHT22;2043;52.184;8.690;2023-04-25T12:13:23;11.50;76.00
4056;DHT22;2043;52.184;8.690;2023-04-25T12:15:51;12.10;73.00
4056;DHT22;2043;52.184;8.690;2023-04-25T12:18:24;12.30;73.20
4056;DHT22;2043;52.184;8.690;2023-04-25T12:20:53;12.30;73.10
4056;DHT22;2043;52.184;8.690;2023-04-25T12:23:27;12.40;72.60
4056;DHT22;2043;52.184;8.690;2023-04-25T12:28:24;12.80;72.00
4056;DHT22;2043;52.184;8.690;2023-04-25T12:33:38;12.10;74.70
4056;DHT22;2043;52.184;8.690;2023-04-25T12:36:06;11.90;74.50
4056;DHT22;2043;52.184;8.690;2023-04-25T12:38:39;11.60;75.90
4056;DHT22;2043;52.184;8.690;2023-04-25T12:41:07;11.50;75.80
4056;DHT22;2043;52.184;8.690;2023-04-25T12:43:34;11.30;76.90
4056;DHT22;2043;52.184;8.690;2023-04-25T12:46:01;11.30;77.00
4056;DHT22;2043;52.184;8.690;2023-04-25T12:48:28;11.20;78.30
4056;DHT22;2043;52.184;8.690;2023-04-25T12:53:23;10.90;79.90
4056;DHT22;2043;52.184;8.690;2023-04-25T12:55:52;11.10;79.70
4056;DHT22;2043;52.184;8.690;2023-04-25T13:03:19;10.60;80.90
4056;DHT22;2043;52.184;8.690;2023-04-25T13:05:46;10.70;81.70
4056;DHT22;2043;52.184;8.690;2023-04-25T13:08:13;10.60;81.00
4056;DHT22;2043;52.184;8.690;2023-04-25T13:10:40;10.30;81.10
4056;DHT22;2043;52.184;8.690;2023-04-25T13:13:07;10.40;83.20
4056;DHT22;2043;52.184;8.690;2023-04-25T13:15:33;11.10;82.30
4056;DHT22;2043;52.184;8.690;2023-04-25T13:18:00;11.50;80.60
4056;DHT22;2043;52.184;8.690;2023-04-25T13:20:27;11.60;78.60
4056;DHT22;2043;52.184;8.690;2023-04-25T13:22:54;11.80;77.20
4056;DHT22;2043;52.184;8.690;2023-04-25T13:25:21;11.30;75.40
4056;DHT22;2043;52.184;8.690;2023-04-25T13:27:48;11.10;73.40
4056;DHT22;2043;52.184;8.690;2023-04-25T13:30:15;10.80;74.10
4056;DHT22;2043;52.184;8.690;2023-04-25T13:32:42;10.60;75.90
4056;DHT22;2043;52.184;8.690;2023-04-25T13:35:11;10.70;75.40
4056;DHT22;2043;52.184;8.690;2023-04-25T13:37:38;10.80;75.10
4056;DHT22;2043;52.184;8.690;2023-04-25T13:42:39;10.30;75.90
4056;DHT22;2043;52.184;8.690;2023-04-25T13:45:07;10.50;78.20
4056;DHT22;2043;52.184;8.690;2023-04-25T13:47:34;10.90;78.20
4056;DHT22;2043;52.184;8.690;2023-04-25T13:50:03;11.20;78.50
4056;DHT22;2043;52.184;8.690;2023-04-25T13:52:30;11.60;76.70
4056;DHT22;2043;52.184;8.690;2023-04-25T13:54:58;11.80;78.80
4056;DHT22;2043;52.184;8.690;2023-04-25T13:57:25;12.20;76.30
4056;DHT22;2043;52.184;8.690;2023-04-25T14:02:20;12.30;76.70
4056;DHT22;2043;52.184;8.690;2023-04-25T14:04:47;12.20;78.60
4056;DHT22;2043;52.184;8.690;2023-04-25T14:07:14;12.10;77.30
4056;DHT22;2043;52.184;8.690;2023-04-25T14:09:44;11.70;77.80
4056;DHT22;2043;52.184;8.690;2023-04-25T14:14:38;11.30;79.00
4056;DHT22;2043;52.184;8.690;2023-04-25T14:17:05;11.20;80.30
4056;DHT22;2043;52.184;8.690;2023-04-25T14:19:33;11.10;80.20
4056;DHT22;2043;52.184;8.690;2023-04-25T14:22:00;10.90;81.50
4056;DHT22;2043;52.184;8.690;2023-04-25T14:24:27;11.10;82.00
4056;DHT22;2043;52.184;8.690;2023-04-25T14:29:21;10.90;80.30
4056;DHT22;2043;52.184;8.690;2023-04-25T14:31:48;10.80;79.80
4056;DHT22;2043;52.184;8.690;2023-04-25T14:34:15;10.80;81.00
4056;DHT22;2043;52.184;8.690;2023-04-25T14:39:09;11.10;79.40
4056;DHT22;2043;52.184;8.690;2023-04-25T14:41:36;11.10;78.10
4056;DHT22;2043;52.184;8.690;2023-04-25T14:46:31;11.10;77.00
4056;DHT22;2043;52.184;8.690;2023-04-25T14:48:58;11.10;77.80
4056;DHT22;2043;52.184;8.690;2023-04-25T14:53:53;10.90;78.40
4056;DHT22;2043;52.184;8.690;2023-04-25T14:56:20;10.90;79.00
4056;DHT22;2043;52.184;8.690;2023-04-25T15:01:14;10.50;85.50
4056;DHT22;2043;52.184;8.690;2023-04-25T15:03:41;10.10;88.20
4056;DHT22;2043;52.184;8.690;2023-04-25T15:06:08;9.50;91.10
4056;DHT22;2043;52.184;8.690;2023-04-25T15:08:35;9.10;93.70
4056;DHT22;2043;52.184;8.690;2023-04-25T15:13:30;8.60;97.80
4056;DHT22;2043;52.184;8.690;2023-04-25T15:15:57;8.60;97.60
4056;DHT22;2043;52.184;8.690;2023-04-25T15:18:24;8.60;98.10
4056;DHT22;2043;52.184;8.690;2023-04-25T15:20:52;8.60;95.00
4056;DHT22;2043;52.184;8.690;2023-04-25T15:23:20;8.70;95.80
4056;DHT22;2043;52.184;8.690;2023-04-25T15:25:50;8.80;95.80
4056;DHT22;2043;52.184;8.690;2023-04-25T15:28:18;8.80;94.70
4056;DHT22;2043;52.184;8.690;2023-04-25T15:30:48;8.80;93.00
4056;DHT22;2043;52.184;8.690;2023-04-25T15:33:15;8.80;92.40
4056;DHT22;2043;52.184;8.690;2023-04-25T15:35:42;8.80;92.80
4056;DHT22;2043;52.184;8.690;2023-04-25T15:38:09;9.00;94.50
4056;DHT22;2043;52.184;8.690;2023-04-25T15:40:37;9.20;92.20
4056;DHT22;2043;52.184;8.690;2023-04-25T15:43:04;9.40;91.20
4056;DHT22;2043;52.184;8.690;2023-04-25T15:45:30;9.50;88.10
4056;DHT22;2043;52.184;8.690;2023-04-25T15:47:58;9.70;88.20
4056;DHT22;2043;52.184;8.690;2023-04-25T15:50:25;9.90;87.40
4056;DHT22;2043;52.184;8.690;2023-04-25T15:52:52;10.20;87.10
4056;DHT22;2043;52.184;8.690;2023-04-25T15:55:19;10.20;84.60
4056;DHT22;2043;52.184;8.690;2023-04-25T15:57:48;10.20;84.60
4056;DHT22;2043;52.184;8.690;2023-04-25T16:00:17;10.20;84.40
4056;DHT22;2043;52.184;8.690;2023-04-25T16:02:45;10.20;85.30
4056;DHT22;2043;52.184;8.690;2023-04-25T16:05:14;10.10;85.30
4056;DHT22;2043;52.184;8.690;2023-04-25T16:07:42;9.90;86.30
4056;DHT22;2043;52.184;8.690;2023-04-25T16:10:10;9.80;87.10
4056;DHT22;2043;52.184;8.690;2023-04-25T16:12:40;9.60;86.90
4056;DHT22;2043;52.184;8.690;2023-04-25T16:15:07;9.40;88.10
4056;DHT22;2043;52.184;8.690;2023-04-25T16:17:34;9.10;86.30
4056;DHT22;2043;52.184;8.690;2023-04-25T16:20:01;8.70;85.30
4056;DHT22;2043;52.184;8.690;2023-04-25T16:22:36;8.60;86.00
4056;DHT22;2043;52.184;8.690;2023-04-25T16:25:04;8.50;86.50
4056;DHT22;2043;52.184;8.690;2023-04-25T16:27:31;8.40;86.30
4056;DHT22;2043;52.184;8.690;2023-04-25T16:30:00;8.30;86.90
4056;DHT22;2043;52.184;8.690;2023-04-25T16:32:27;8.40;87.50
4056;DHT22;2043;52.184;8.690;2023-04-25T16:34:54;8.50;87.30
4056;DHT22;2043;52.184;8.690;2023-04-25T16:37:24;8.60;87.00
4056;DHT22;2043;52.184;8.690;2023-04-25T16:39:51;8.60;87.60
4056;DHT22;2043;52.184;8.690;2023-04-25T16:47:13;9.00;87.30
4056;DHT22;2043;52.184;8.690;2023-04-25T16:49:45;9.20;87.60
4056;DHT22;2043;52.184;8.690;2023-04-25T16:52:11;9.20;86.40
4056;DHT22;2043;52.184;8.690;2023-04-25T16:54:38;9.30;87.20
4056;DHT22;2043;52.184;8.690;2023-04-25T16:57:05;9.40;86.70
4056;DHT22;2043;52.184;8.690;2023-04-25T16:59:39;9.50;86.00
4056;DHT22;2043;52.184;8.690;2023-04-25T17:02:10;9.30;86.20
4056;DHT22;2043;52.184;8.690;2023-04-25T17:04:38;9.30;87.50
4056;DHT22;2043;52.184;8.690;2023-04-25T17:07:07;9.40;86.90
4056;DHT22;2043;52.184;8.690;2023-04-25T17:09:34;9.30;86.90
4056;DHT22;2043;52.184;8.690;2023-04-25T17:12:01;9.30;87.20
4056;DHT22;2043;52.184;8.690;2023-04-25T17:14:29;9.30;87.00
4056;DHT22;2043;52.184;8.690;2023-04-25T17:16:58;9.20;85.90
4056;DHT22;2043;52.184;8.690;2023-04-25T17:19:25;8.90;86.70
4056;DHT22;2043;52.184;8.690;2023-04-25T17:21:52;8.90;86.50
4056;DHT22;2043;52.184;8.690;2023-04-25T17:24:19;8.80;86.90
4056;DHT22;2043;52.184;8.690;2023-04-25T17:26:47;8.80;87.00
4056;DHT22;2043;52.184;8.690;2023-04-25T17:29:14;8.60;86.70
4056;DHT22;2043;52.184;8.690;2023-04-25T17:31:42;8.60;87.30
4056;DHT22;2043;52.184;8.690;2023-04-25T17:34:09;8.70;87.30
4056;DHT22;2043;52.184;8.690;2023-04-25T17:36:37;8.80;87.50
4056;DHT22;2043;52.184;8.690;2023-04-25T17:39:04;8.60;87.30
4056;DHT22;2043;52.184;8.690;2023-04-25T17:41:32;8.40;87.60
4056;DHT22;2043;52.184;8.690;2023-04-25T17:43:59;8.50;87.90
4056;DHT22;2043;52.184;8.690;2023-04-25T17:46:26;8.50;86.40
4056;DHT22;2043;52.184;8.690;2023-04-25T17:48:55;8.40;86.10
4056;DHT22;2043;52.184;8.690;2023-04-25T17:51:23;8.40;86.60
4056;DHT22;2043;52.184;8.690;2023-04-25T17:53:50;8.40;86.50
4056;DHT22;2043;52.184;8.690;2023-04-25T17:56:17;8.30;86.60
4056;DHT22;2043;52.184;8.690;2023-04-25T17:58:52;8.10;86.90
4056;DHT22;2043;52.184;8.690;2023-04-25T18:01:20;8.10;87.00
4056;DHT22;2043;52.184;8.690;2023-04-25T18:03:47;8.00;87.40
4056;DHT22;2043;52.184;8.690;2023-04-25T18:06:16;7.80;87.20
4056;DHT22;2043;52.184;8.690;2023-04-25T18:11:10;7.80;88.40
4056;DHT22;2043;52.184;8.690;2023-04-25T18:13:38;7.70;88.60
4056;DHT22;2043;52.184;8.690;2023-04-25T18:16:05;7.70;88.80
4056;DHT22;2043;52.184;8.690;2023-04-25T18:18:32;7.70;89.20
4056;DHT22;2043;52.184;8.690;2023-04-25T18:23:31;7.60;89.90
4056;DHT22;2043;52.184;8.690;2023-04-25T18:26:02;7.60;89.70
4056;DHT22;2043;52.184;8.690;2023-04-25T18:28:29;7.60;89.30
4056;DHT22;2043;52.184;8.690;2023-04-25T18:30:56;7.50;89.20
4056;DHT22;2043;52.184;8.690;2023-04-25T18:33:23;7.40;89.40
4056;DHT22;2043;52.184;8.690;2023-04-25T18:35:50;7.40;90.00
4056;DHT22;2043;52.184;8.690;2023-04-25T18:38:20;7.40;90.40
4056;DHT22;2043;52.184;8.690;2023-04-25T18:41:01;7.50;90.20
4056;DHT22;2043;52.184;8.690;2023-04-25T18:43:46;7.50;90.70
4056;DHT22;2043;52.184;8.690;2023-04-25T18:46:13;7.40;90.50